Terminal Aerodrome Forecast
Issued by NWS Green Bay, WI

Home | Current Version | Previous Version | Text Only | Print | Product List | Glossary Off
Versions: 1 2 3 4 5 6 7 8 9 10 11 12 13 14 15 16 17

000
FTUS43 KGRB 151247 AAA
TAFGRB
TAF AMD
KGRB 151247Z 1513/1612 33017G28KT P6SM -SHRA OVC012
     FM151500 33024G34KT P6SM OVC025
     FM151700 32016G25KT P6SM BKN040
     FM152200 28008KT P6SM SCT040 BKN140=

USA.gov is the U.S. government's official web portal to all federal, state and local government web resources and services.